sensor_id;sensor_type;location;lat;lon;timestamp;temperature;humidity
9450;DHT22;4763;48.370;10.874;2023-05-16T00:00:39;9.10;99.90
9450;DHT22;4763;48.370;10.874;2023-05-16T00:03:05;9.00;99.90
9450;DHT22;4763;48.370;10.874;2023-05-16T00:05:32;9.00;99.90
9450;DHT22;4763;48.370;10.874;2023-05-16T00:07:59;8.90;99.90
9450;DHT22;4763;48.370;10.874;2023-05-16T00:10:27;8.90;99.90
9450;DHT22;4763;48.370;10.874;2023-05-16T00:12:54;8.80;99.90
9450;DHT22;4763;48.370;10.874;2023-05-16T00:15:22;8.80;99.90
9450;DHT22;4763;48.370;10.874;2023-05-16T00:17:49;8.70;99.90
9450;DHT22;4763;48.370;10.874;2023-05-16T00:20:16;8.60;99.90
9450;DHT22;4763;48.370;10.874;2023-05-16T00:22:47;8.60;99.90
9450;DHT22;4763;48.370;10.874;2023-05-16T00:25:14;8.60;99.90
9450;DHT22;4763;48.370;10.874;2023-05-16T00:27:42;8.70;99.90
9450;DHT22;4763;48.370;10.874;2023-05-16T00:30:09;8.60;99.90
9450;DHT22;4763;48.370;10.874;2023-05-16T00:32:36;8.60;99.90
9450;DHT22;4763;48.370;10.874;2023-05-16T00:35:04;8.60;99.90
9450;DHT22;4763;48.370;10.874;2023-05-16T00:37:31;8.50;99.90
9450;DHT22;4763;48.370;10.874;2023-05-16T00:39:58;8.40;99.90
9450;DHT22;4763;48.370;10.874;2023-05-16T00:42:24;8.50;99.90
9450;DHT22;4763;48.370;10.874;2023-05-16T00:44:53;8.40;99.90
9450;DHT22;4763;48.370;10.874;2023-05-16T00:47:19;8.50;99.90
9450;DHT22;4763;48.370;10.874;2023-05-16T00:49:46;8.40;99.90
9450;DHT22;4763;48.370;10.874;2023-05-16T00:52:13;8.50;99.90
9450;DHT22;4763;48.370;10.874;2023-05-16T00:54:40;8.40;99.90
9450;DHT22;4763;48.370;10.874;2023-05-16T00:57:07;8.40;99.90
9450;DHT22;4763;48.370;10.874;2023-05-16T00:59:34;8.50;99.90
9450;DHT22;4763;48.370;10.874;2023-05-16T01:02:02;8.50;99.90
9450;DHT22;4763;48.370;10.874;2023-05-16T01:04:29;8.50;99.90
9450;DHT22;4763;48.370;10.874;2023-05-16T01:06:57;8.50;99.90
9450;DHT22;4763;48.370;10.874;2023-05-16T01:09:24;8.50;99.90
9450;DHT22;4763;48.370;10.874;2023-05-16T01:12:08;8.50;99.90
9450;DHT22;4763;48.370;10.874;2023-05-16T01:14:42;8.50;99.90
9450;DHT22;4763;48.370;10.874;2023-05-16T01:17:19;8.50;99.90
9450;DHT22;4763;48.370;10.874;2023-05-16T01:20:01;8.50;99.90
9450;DHT22;4763;48.370;10.874;2023-05-16T01:22:51;8.50;99.90
9450;DHT22;4763;48.370;10.874;2023-05-16T01:25:31;8.50;99.90
9450;DHT22;4763;48.370;10.874;2023-05-16T01:28:04;8.50;99.90
9450;DHT22;4763;48.370;10.874;2023-05-16T01:30:34;8.40;99.90
9450;DHT22;4763;48.370;10.874;2023-05-16T01:33:02;8.40;99.90
9450;DHT22;4763;48.370;10.874;2023-05-16T01:35:29;8.40;99.90
9450;DHT22;4763;48.370;10.874;2023-05-16T01:38:03;8.30;99.90
9450;DHT22;4763;48.370;10.874;2023-05-16T01:40:40;8.20;99.90
9450;DHT22;4763;48.370;10.874;2023-05-16T01:43:15;8.20;99.90
9450;DHT22;4763;48.370;10.874;2023-05-16T01:45:48;8.20;99.90
9450;DHT22;4763;48.370;10.874;2023-05-16T01:48:20;8.20;99.90
9450;DHT22;4763;48.370;10.874;2023-05-16T01:50:53;8.10;99.90
9450;DHT22;4763;48.370;10.874;2023-05-16T01:53:24;8.10;99.90
9450;DHT22;4763;48.370;10.874;2023-05-16T01:55:55;8.00;99.90
9450;DHT22;4763;48.370;10.874;2023-05-16T01:58:26;8.00;99.90
9450;DHT22;4763;48.370;10.874;2023-05-16T02:01:00;8.00;99.90
9450;DHT22;4763;48.370;10.874;2023-05-16T02:03:28;7.90;99.90
9450;DHT22;4763;48.370;10.874;2023-05-16T02:05:54;7.90;99.90
9450;DHT22;4763;48.370;10.874;2023-05-16T02:08:22;7.90;99.90
9450;DHT22;4763;48.370;10.874;2023-05-16T02:10:49;7.90;99.90
9450;DHT22;4763;48.370;10.874;2023-05-16T02:13:16;7.80;99.90
9450;DHT22;4763;48.370;10.874;2023-05-16T02:15:44;7.80;99.90
9450;DHT22;4763;48.370;10.874;2023-05-16T02:18:11;7.80;99.90
9450;DHT22;4763;48.370;10.874;2023-05-16T02:20:38;7.80;99.90
9450;DHT22;4763;48.370;10.874;2023-05-16T02:23:05;7.80;99.90
9450;DHT22;4763;48.370;10.874;2023-05-16T02:25:31;7.60;99.90
9450;DHT22;4763;48.370;10.874;2023-05-16T02:27:58;7.70;99.90
9450;DHT22;4763;48.370;10.874;2023-05-16T02:30:27;7.60;99.90
9450;DHT22;4763;48.370;10.874;2023-05-16T02:32:59;7.60;99.90
9450;DHT22;4763;48.370;10.874;2023-05-16T02:35:25;7.60;99.90
9450;DHT22;4763;48.370;10.874;2023-05-16T02:37:52;7.50;99.90
9450;DHT22;4763;48.370;10.874;2023-05-16T02:40:19;7.50;99.90
9450;DHT22;4763;48.370;10.874;2023-05-16T02:42:46;7.50;99.90
9450;DHT22;4763;48.370;10.874;2023-05-16T02:45:13;7.50;99.90
9450;DHT22;4763;48.370;10.874;2023-05-16T02:47:40;7.50;99.90
9450;DHT22;4763;48.370;10.874;2023-05-16T02:50:09;7.40;99.90
9450;DHT22;4763;48.370;10.874;2023-05-16T02:52:35;7.40;99.90
9450;DHT22;4763;48.370;10.874;2023-05-16T02:55:03;7.40;99.90
9450;DHT22;4763;48.370;10.874;2023-05-16T02:57:31;7.40;99.90
9450;DHT22;4763;48.370;10.874;2023-05-16T03:00:00;7.40;99.90
9450;DHT22;4763;48.370;10.874;2023-05-16T03:02:28;7.30;99.90
9450;DHT22;4763;48.370;10.874;2023-05-16T03:04:55;7.30;99.90
9450;DHT22;4763;48.370;10.874;2023-05-16T03:07:23;7.30;99.90
9450;DHT22;4763;48.370;10.874;2023-05-16T03:09:50;7.30;99.90
9450;DHT22;4763;48.370;10.874;2023-05-16T03:12:17;7.30;99.90
9450;DHT22;4763;48.370;10.874;2023-05-16T03:14:43;7.30;99.90
9450;DHT22;4763;48.370;10.874;2023-05-16T03:17:10;7.30;99.90
9450;DHT22;4763;48.370;10.874;2023-05-16T03:19:37;7.30;99.90
9450;DHT22;4763;48.370;10.874;2023-05-16T03:22:04;7.30;99.90
9450;DHT22;4763;48.370;10.874;2023-05-16T03:24:32;7.30;99.90
9450;DHT22;4763;48.370;10.874;2023-05-16T03:26:58;7.20;99.90
9450;DHT22;4763;48.370;10.874;2023-05-16T03:29:25;7.20;99.90
9450;DHT22;4763;48.370;10.874;2023-05-16T03:31:52;7.20;99.90
9450;DHT22;4763;48.370;10.874;2023-05-16T03:34:19;7.20;99.90
9450;DHT22;4763;48.370;10.874;2023-05-16T03:36:47;7.20;99.90
9450;DHT22;4763;48.370;10.874;2023-05-16T03:39:13;7.20;99.90
9450;DHT22;4763;48.370;10.874;2023-05-16T03:41:41;7.20;99.90
9450;DHT22;4763;48.370;10.874;2023-05-16T03:44:08;7.20;99.90
9450;DHT22;4763;48.370;10.874;2023-05-16T03:46:35;7.30;99.90
9450;DHT22;4763;48.370;10.874;2023-05-16T03:49:02;7.30;99.90
9450;DHT22;4763;48.370;10.874;2023-05-16T03:51:29;7.30;99.90
9450;DHT22;4763;48.370;10.874;2023-05-16T03:53:56;7.30;99.90
9450;DHT22;4763;48.370;10.874;2023-05-16T03:56:25;7.30;99.90
9450;DHT22;4763;48.370;10.874;2023-05-16T03:58:53;7.30;99.90
9450;DHT22;4763;48.370;10.874;2023-05-16T04:01:20;7.30;99.90
9450;DHT22;4763;48.370;10.874;2023-05-16T04:03:47;7.30;99.90
9450;DHT22;4763;48.370;10.874;2023-05-16T04:06:15;7.40;99.90
9450;DHT22;4763;48.370;10.874;2023-05-16T04:08:41;7.50;99.90
9450;DHT22;4763;48.370;10.874;2023-05-16T04:11:09;7.50;99.90
9450;DHT22;4763;48.370;10.874;2023-05-16T04:13:36;7.50;99.90
9450;DHT22;4763;48.370;10.874;2023-05-16T04:16:05;7.50;99.90
9450;DHT22;4763;48.370;10.874;2023-05-16T04:18:31;7.60;99.90
9450;DHT22;4763;48.370;10.874;2023-05-16T04:20:58;7.60;99.90
9450;DHT22;4763;48.370;10.874;2023-05-16T04:23:25;7.70;99.90
9450;DHT22;4763;48.370;10.874;2023-05-16T04:25:52;7.80;99.90
9450;DHT22;4763;48.370;10.874;2023-05-16T04:28:21;7.90;99.90
9450;DHT22;4763;48.370;10.874;2023-05-16T04:30:48;7.90;99.90
9450;DHT22;4763;48.370;10.874;2023-05-16T04:33:16;8.00;99.90
9450;DHT22;4763;48.370;10.874;2023-05-16T04:35:43;8.10;99.90
9450;DHT22;4763;48.370;10.874;2023-05-16T04:38:09;8.20;99.90
9450;DHT22;4763;48.370;10.874;2023-05-16T04:40:36;8.30;99.90
9450;DHT22;4763;48.370;10.874;2023-05-16T04:43:03;8.30;99.90
9450;DHT22;4763;48.370;10.874;2023-05-16T04:45:29;8.40;99.90
9450;DHT22;4763;48.370;10.874;2023-05-16T04:47:56;8.40;99.90
9450;DHT22;4763;48.370;10.874;2023-05-16T04:50:24;8.40;99.90
9450;DHT22;4763;48.370;10.874;2023-05-16T04:52:51;8.50;99.90
9450;DHT22;4763;48.370;10.874;2023-05-16T04:55:18;8.50;99.90
9450;DHT22;4763;48.370;10.874;2023-05-16T04:57:44;8.60;99.90
9450;DHT22;4763;48.370;10.874;2023-05-16T05:00:12;8.70;99.90
9450;DHT22;4763;48.370;10.874;2023-05-16T05:02:40;8.70;99.90
9450;DHT22;4763;48.370;10.874;2023-05-16T05:05:08;8.80;99.90
9450;DHT22;4763;48.370;10.874;2023-05-16T05:07:36;8.80;99.90
9450;DHT22;4763;48.370;10.874;2023-05-16T05:10:03;8.90;99.90
9450;DHT22;4763;48.370;10.874;2023-05-16T05:12:32;9.00;99.90
9450;DHT22;4763;48.370;10.874;2023-05-16T05:14:59;9.10;99.90
9450;DHT22;4763;48.370;10.874;2023-05-16T05:17:25;9.10;99.90
9450;DHT22;4763;48.370;10.874;2023-05-16T05:19:52;9.20;99.90
9450;DHT22;4763;48.370;10.874;2023-05-16T05:22:19;9.20;99.90
9450;DHT22;4763;48.370;10.874;2023-05-16T05:24:47;9.20;99.90
9450;DHT22;4763;48.370;10.874;2023-05-16T05:27:14;9.30;99.90
9450;DHT22;4763;48.370;10.874;2023-05-16T05:29:41;9.40;99.90
9450;DHT22;4763;48.370;10.874;2023-05-16T05:32:08;9.40;99.90
9450;DHT22;4763;48.370;10.874;2023-05-16T05:34:34;9.50;99.90
9450;DHT22;4763;48.370;10.874;2023-05-16T05:37:01;9.60;99.90
9450;DHT22;4763;48.370;10.874;2023-05-16T05:39:28;9.70;99.90
9450;DHT22;4763;48.370;10.874;2023-05-16T05:41:56;9.80;99.90
9450;DHT22;4763;48.370;10.874;2023-05-16T05:44:24;9.80;99.90
9450;DHT22;4763;48.370;10.874;2023-05-16T05:46:50;9.90;99.90
9450;DHT22;4763;48.370;10.874;2023-05-16T05:49:17;9.90;99.90
9450;DHT22;4763;48.370;10.874;2023-05-16T05:51:44;10.00;99.90
9450;DHT22;4763;48.370;10.874;2023-05-16T05:54:11;10.10;99.90
9450;DHT22;4763;48.370;10.874;2023-05-16T05:56:38;10.20;99.90
9450;DHT22;4763;48.370;10.874;2023-05-16T05:59:06;10.30;99.90
9450;DHT22;4763;48.370;10.874;2023-05-16T06:01:32;10.30;99.90
9450;DHT22;4763;48.370;10.874;2023-05-16T06:03:59;10.40;99.90
9450;DHT22;4763;48.370;10.874;2023-05-16T06:06:27;10.50;99.90
9450;DHT22;4763;48.370;10.874;2023-05-16T06:08:53;10.50;99.90
9450;DHT22;4763;48.370;10.874;2023-05-16T06:11:20;10.60;99.90
9450;DHT22;4763;48.370;10.874;2023-05-16T06:13:47;10.70;99.90
9450;DHT22;4763;48.370;10.874;2023-05-16T06:16:15;10.80;99.90
9450;DHT22;4763;48.370;10.874;2023-05-16T06:18:41;10.90;99.90
9450;DHT22;4763;48.370;10.874;2023-05-16T06:21:08;11.00;99.90
9450;DHT22;4763;48.370;10.874;2023-05-16T06:23:35;11.00;99.90
9450;DHT22;4763;48.370;10.874;2023-05-16T06:26:03;11.10;99.90
9450;DHT22;4763;48.370;10.874;2023-05-16T06:28:29;11.10;99.90
9450;DHT22;4763;48.370;10.874;2023-05-16T06:30:56;11.10;99.90
9450;DHT22;4763;48.370;10.874;2023-05-16T06:33:24;11.10;99.90
9450;DHT22;4763;48.370;10.874;2023-05-16T06:35:51;11.10;99.90
9450;DHT22;4763;48.370;10.874;2023-05-16T06:38:18;11.20;99.90
9450;DHT22;4763;48.370;10.874;2023-05-16T06:40:45;11.20;99.90
9450;DHT22;4763;48.370;10.874;2023-05-16T06:43:12;11.30;99.90
9450;DHT22;4763;48.370;10.874;2023-05-16T06:45:39;11.40;99.90
9450;DHT22;4763;48.370;10.874;2023-05-16T06:48:06;11.50;99.90
9450;DHT22;4763;48.370;10.874;2023-05-16T06:50:34;11.60;99.90
9450;DHT22;4763;48.370;10.874;2023-05-16T06:53:01;11.50;99.90
9450;DHT22;4763;48.370;10.874;2023-05-16T06:55:29;11.70;99.90
9450;DHT22;4763;48.370;10.874;2023-05-16T06:57:56;11.80;99.90
9450;DHT22;4763;48.370;10.874;2023-05-16T07:00:23;11.90;99.90
9450;DHT22;4763;48.370;10.874;2023-05-16T07:02:50;11.90;99.90
9450;DHT22;4763;48.370;10.874;2023-05-16T07:05:16;12.00;99.90
9450;DHT22;4763;48.370;10.874;2023-05-16T07:07:45;12.20;99.90
9450;DHT22;4763;48.370;10.874;2023-05-16T07:10:11;12.30;99.90
9450;DHT22;4763;48.370;10.874;2023-05-16T07:12:40;12.40;99.90
9450;DHT22;4763;48.370;10.874;2023-05-16T07:15:08;12.60;99.90
9450;DHT22;4763;48.370;10.874;2023-05-16T07:17:35;12.70;99.90
9450;DHT22;4763;48.370;10.874;2023-05-16T07:20:02;12.80;99.90
9450;DHT22;4763;48.370;10.874;2023-05-16T07:22:29;12.90;99.90
9450;DHT22;4763;48.370;10.874;2023-05-16T07:24:57;13.00;99.90
9450;DHT22;4763;48.370;10.874;2023-05-16T07:27:25;13.00;99.90
9450;DHT22;4763;48.370;10.874;2023-05-16T07:29:52;13.10;99.90
9450;DHT22;4763;48.370;10.874;2023-05-16T07:32:18;13.20;99.90
9450;DHT22;4763;48.370;10.874;2023-05-16T07:34:45;13.40;99.90
9450;DHT22;4763;48.370;10.874;2023-05-16T07:37:12;13.40;99.90
9450;DHT22;4763;48.370;10.874;2023-05-16T07:39:40;13.50;99.90
9450;DHT22;4763;48.370;10.874;2023-05-16T07:42:09;13.70;99.90
9450;DHT22;4763;48.370;10.874;2023-05-16T07:44:35;13.70;99.90
9450;DHT22;4763;48.370;10.874;2023-05-16T07:47:02;13.70;99.90
9450;DHT22;4763;48.370;10.874;2023-05-16T07:49:29;13.80;99.90
9450;DHT22;4763;48.370;10.874;2023-05-16T07:51:56;14.00;99.90
9450;DHT22;4763;48.370;10.874;2023-05-16T07:54:23;13.90;99.90
9450;DHT22;4763;48.370;10.874;2023-05-16T07:56:49;14.00;99.90
9450;DHT22;4763;48.370;10.874;2023-05-16T07:59:17;14.10;99.90
9450;DHT22;4763;48.370;10.874;2023-05-16T08:01:44;14.20;99.90
9450;DHT22;4763;48.370;10.874;2023-05-16T08:04:11;14.30;99.90
9450;DHT22;4763;48.370;10.874;2023-05-16T08:06:38;14.40;99.90
9450;DHT22;4763;48.370;10.874;2023-05-16T08:09:05;14.40;99.90
9450;DHT22;4763;48.370;10.874;2023-05-16T08:11:33;14.50;99.90
9450;DHT22;4763;48.370;10.874;2023-05-16T08:14:00;14.40;99.90
9450;DHT22;4763;48.370;10.874;2023-05-16T08:16:28;14.50;99.90
9450;DHT22;4763;48.370;10.874;2023-05-16T08:18:55;14.60;99.90
9450;DHT22;4763;48.370;10.874;2023-05-16T08:21:22;14.50;99.90
9450;DHT22;4763;48.370;10.874;2023-05-16T08:23:49;14.60;99.90
9450;DHT22;4763;48.370;10.874;2023-05-16T08:26:16;14.60;99.90
9450;DHT22;4763;48.370;10.874;2023-05-16T08:28:43;14.60;99.90
9450;DHT22;4763;48.370;10.874;2023-05-16T08:31:10;14.60;99.90
9450;DHT22;4763;48.370;10.874;2023-05-16T08:33:38;14.60;99.90
9450;DHT22;4763;48.370;10.874;2023-05-16T08:36:05;14.60;99.90
9450;DHT22;4763;48.370;10.874;2023-05-16T08:38:32;14.70;99.90
9450;DHT22;4763;48.370;10.874;2023-05-16T08:40:59;14.80;99.90
9450;DHT22;4763;48.370;10.874;2023-05-16T08:43:26;14.80;99.90
9450;DHT22;4763;48.370;10.874;2023-05-16T08:45:53;14.90;99.90
9450;DHT22;4763;48.370;10.874;2023-05-16T08:48:22;15.00;99.90
9450;DHT22;4763;48.370;10.874;2023-05-16T08:50:51;15.20;99.90
9450;DHT22;4763;48.370;10.874;2023-05-16T08:53:21;15.30;99.90
9450;DHT22;4763;48.370;10.874;2023-05-16T08:55:48;15.40;99.90
9450;DHT22;4763;48.370;10.874;2023-05-16T08:58:16;15.50;99.90
9450;DHT22;4763;48.370;10.874;2023-05-16T09:00:43;15.50;99.90
9450;DHT22;4763;48.370;10.874;2023-05-16T09:03:10;15.60;99.90
9450;DHT22;4763;48.370;10.874;2023-05-16T09:05:37;15.60;99.90
9450;DHT22;4763;48.370;10.874;2023-05-16T09:08:06;15.60;99.90
9450;DHT22;4763;48.370;10.874;2023-05-16T09:10:33;15.60;99.90
9450;DHT22;4763;48.370;10.874;2023-05-16T09:13:00;15.60;99.90
9450;DHT22;4763;48.370;10.874;2023-05-16T09:15:31;15.40;99.90
9450;DHT22;4763;48.370;10.874;2023-05-16T09:17:59;15.30;99.90
9450;DHT22;4763;48.370;10.874;2023-05-16T09:20:27;15.30;99.90
9450;DHT22;4763;48.370;10.874;2023-05-16T09:22:55;15.30;99.90
9450;DHT22;4763;48.370;10.874;2023-05-16T09:25:24;15.40;99.90
9450;DHT22;4763;48.370;10.874;2023-05-16T09:27:52;15.40;99.90
9450;DHT22;4763;48.370;10.874;2023-05-16T09:30:21;15.20;99.90
9450;DHT22;4763;48.370;10.874;2023-05-16T09:32:50;15.10;99.90
9450;DHT22;4763;48.370;10.874;2023-05-16T09:35:20;15.30;99.90
9450;DHT22;4763;48.370;10.874;2023-05-16T09:37:47;15.30;99.90
9450;DHT22;4763;48.370;10.874;2023-05-16T09:40:14;15.40;99.90
9450;DHT22;4763;48.370;10.874;2023-05-16T09:42:42;15.50;99.90
9450;DHT22;4763;48.370;10.874;2023-05-16T09:45:11;15.50;99.90
9450;DHT22;4763;48.370;10.874;2023-05-16T09:47:39;15.40;99.90
9450;DHT22;4763;48.370;10.874;2023-05-16T09:50:12;15.60;99.90
9450;DHT22;4763;48.370;10.874;2023-05-16T09:52:39;15.80;99.90
9450;DHT22;4763;48.370;10.874;2023-05-16T09:55:07;15.70;99.90
9450;DHT22;4763;48.370;10.874;2023-05-16T09:57:37;15.60;99.90
9450;DHT22;4763;48.370;10.874;2023-05-16T10:00:10;15.80;99.90
9450;DHT22;4763;48.370;10.874;2023-05-16T10:02:38;16.00;99.90
9450;DHT22;4763;48.370;10.874;2023-05-16T10:05:08;16.10;99.90
9450;DHT22;4763;48.370;10.874;2023-05-16T10:07:36;16.00;99.90
9450;DHT22;4763;48.370;10.874;2023-05-16T10:10:06;16.00;99.90
9450;DHT22;4763;48.370;10.874;2023-05-16T10:12:33;16.00;99.90
9450;DHT22;4763;48.370;10.874;2023-05-16T10:15:03;16.30;99.90
9450;DHT22;4763;48.370;10.874;2023-05-16T10:17:33;16.50;99.90
9450;DHT22;4763;48.370;10.874;2023-05-16T10:20:01;16.50;99.90
9450;DHT22;4763;48.370;10.874;2023-05-16T10:22:33;16.40;99.90
9450;DHT22;4763;48.370;10.874;2023-05-16T10:25:06;16.50;99.90
9450;DHT22;4763;48.370;10.874;2023-05-16T10:27:35;16.50;99.90
9450;DHT22;4763;48.370;10.874;2023-05-16T10:30:02;16.40;99.90
9450;DHT22;4763;48.370;10.874;2023-05-16T10:32:32;16.40;99.90
9450;DHT22;4763;48.370;10.874;2023-05-16T10:34:59;16.30;99.90
9450;DHT22;4763;48.370;10.874;2023-05-16T10:37:28;16.30;99.90
9450;DHT22;4763;48.370;10.874;2023-05-16T10:39:56;16.40;99.90
9450;DHT22;4763;48.370;10.874;2023-05-16T10:42:23;16.30;99.90
9450;DHT22;4763;48.370;10.874;2023-05-16T10:44:53;16.30;99.90
9450;DHT22;4763;48.370;10.874;2023-05-16T10:47:20;16.30;99.90
9450;DHT22;4763;48.370;10.874;2023-05-16T10:49:48;16.20;99.90
9450;DHT22;4763;48.370;10.874;2023-05-16T10:52:15;16.10;99.90
9450;DHT22;4763;48.370;10.874;2023-05-16T10:54:43;16.10;99.90
9450;DHT22;4763;48.370;10.874;2023-05-16T10:57:17;15.90;99.90
9450;DHT22;4763;48.370;10.874;2023-05-16T10:59:46;15.90;99.90
9450;DHT22;4763;48.370;10.874;2023-05-16T11:02:24;15.70;99.90
9450;DHT22;4763;48.370;10.874;2023-05-16T11:04:54;15.60;99.90
9450;DHT22;4763;48.370;10.874;2023-05-16T11:07:22;15.30;99.90
9450;DHT22;4763;48.370;10.874;2023-05-16T11:10:02;15.10;99.90
9450;DHT22;4763;48.370;10.874;2023-05-16T11:12:47;14.90;99.90
9450;DHT22;4763;48.370;10.874;2023-05-16T11:15:23;14.80;99.90
9450;DHT22;4763;48.370;10.874;2023-05-16T11:17:55;14.70;99.90
9450;DHT22;4763;48.370;10.874;2023-05-16T11:20:32;14.50;99.90
9450;DHT22;4763;48.370;10.874;2023-05-16T11:23:22;14.40;99.90
9450;DHT22;4763;48.370;10.874;2023-05-16T11:25:53;14.40;99.90
9450;DHT22;4763;48.370;10.874;2023-05-16T11:28:21;14.30;99.90
9450;DHT22;4763;48.370;10.874;2023-05-16T11:30:50;14.30;99.90
9450;DHT22;4763;48.370;10.874;2023-05-16T11:33:19;14.20;99.90
9450;DHT22;4763;48.370;10.874;2023-05-16T11:36:00;14.20;99.90
9450;DHT22;4763;48.370;10.874;2023-05-16T11:38:29;14.20;99.90
9450;DHT22;4763;48.370;10.874;2023-05-16T11:41:02;14.10;99.90
9450;DHT22;4763;48.370;10.874;2023-05-16T11:43:29;14.20;99.90
9450;DHT22;4763;48.370;10.874;2023-05-16T11:45:56;14.20;99.90
9450;DHT22;4763;48.370;10.874;2023-05-16T11:48:23;14.20;99.90
9450;DHT22;4763;48.370;10.874;2023-05-16T11:50:50;14.10;99.90
9450;DHT22;4763;48.370;10.874;2023-05-16T11:53:20;14.20;99.90
9450;DHT22;4763;48.370;10.874;2023-05-16T11:55:48;14.30;99.90
9450;DHT22;4763;48.370;10.874;2023-05-16T11:58:17;14.20;99.90
9450;DHT22;4763;48.370;10.874;2023-05-16T12:00:47;14.20;99.90
9450;DHT22;4763;48.370;10.874;2023-05-16T12:03:14;14.00;99.90
9450;DHT22;4763;48.370;10.874;2023-05-16T12:05:49;13.90;99.90
9450;DHT22;4763;48.370;10.874;2023-05-16T12:08:16;13.70;99.90
9450;DHT22;4763;48.370;10.874;2023-05-16T12:10:44;13.60;99.90
9450;DHT22;4763;48.370;10.874;2023-05-16T12:13:11;13.50;99.90
9450;DHT22;4763;48.370;10.874;2023-05-16T12:15:38;13.30;99.90
9450;DHT22;4763;48.370;10.874;2023-05-16T12:18:05;13.10;99.90
9450;DHT22;4763;48.370;10.874;2023-05-16T12:20:31;13.00;99.90
9450;DHT22;4763;48.370;10.874;2023-05-16T12:22:58;12.80;99.90
9450;DHT22;4763;48.370;10.874;2023-05-16T12:25:26;12.30;99.90
9450;DHT22;4763;48.370;10.874;2023-05-16T12:27:57;12.30;99.90
9450;DHT22;4763;48.370;10.874;2023-05-16T12:30:24;12.30;99.90
9450;DHT22;4763;48.370;10.874;2023-05-16T12:32:54;12.30;99.90
9450;DHT22;4763;48.370;10.874;2023-05-16T12:35:21;12.20;99.90
9450;DHT22;4763;48.370;10.874;2023-05-16T12:37:48;12.10;99.90
9450;DHT22;4763;48.370;10.874;2023-05-16T12:40:15;11.80;99.90
9450;DHT22;4763;48.370;10.874;2023-05-16T12:42:42;11.70;99.90
9450;DHT22;4763;48.370;10.874;2023-05-16T12:45:14;11.70;99.90
9450;DHT22;4763;48.370;10.874;2023-05-16T12:47:42;11.70;99.90
9450;DHT22;4763;48.370;10.874;2023-05-16T12:50:10;11.70;99.90
9450;DHT22;4763;48.370;10.874;2023-05-16T12:52:46;11.80;99.90
9450;DHT22;4763;48.370;10.874;2023-05-16T12:55:13;11.80;99.90
9450;DHT22;4763;48.370;10.874;2023-05-16T12:57:41;11.80;99.90
9450;DHT22;4763;48.370;10.874;2023-05-16T13:00:10;11.90;99.90
9450;DHT22;4763;48.370;10.874;2023-05-16T13:02:38;12.00;99.90
9450;DHT22;4763;48.370;10.874;2023-05-16T13:05:05;12.10;99.90
9450;DHT22;4763;48.370;10.874;2023-05-16T13:07:33;12.20;99.90
9450;DHT22;4763;48.370;10.874;2023-05-16T13:10:00;12.20;99.90
9450;DHT22;4763;48.370;10.874;2023-05-16T13:12:27;12.20;99.90
9450;DHT22;4763;48.370;10.874;2023-05-16T13:14:53;12.30;99.90
9450;DHT22;4763;48.370;10.874;2023-05-16T13:17:20;12.30;99.90
9450;DHT22;4763;48.370;10.874;2023-05-16T13:19:49;12.50;99.90
9450;DHT22;4763;48.370;10.874;2023-05-16T13:22:16;12.50;99.90
9450;DHT22;4763;48.370;10.874;2023-05-16T13:24:43;12.60;99.90
9450;DHT22;4763;48.370;10.874;2023-05-16T13:27:10;12.60;99.90
9450;DHT22;4763;48.370;10.874;2023-05-16T13:29:36;12.80;99.90
9450;DHT22;4763;48.370;10.874;2023-05-16T13:32:04;12.90;99.90
9450;DHT22;4763;48.370;10.874;2023-05-16T13:34:31;13.00;99.90
9450;DHT22;4763;48.370;10.874;2023-05-16T13:37:00;13.20;99.90
9450;DHT22;4763;48.370;10.874;2023-05-16T13:39:27;13.30;99.90
9450;DHT22;4763;48.370;10.874;2023-05-16T13:41:54;13.20;99.90
9450;DHT22;4763;48.370;10.874;2023-05-16T13:44:20;13.20;99.90
9450;DHT22;4763;48.370;10.874;2023-05-16T13:46:47;13.20;99.90
9450;DHT22;4763;48.370;10.874;2023-05-16T13:49:14;13.20;99.90
9450;DHT22;4763;48.370;10.874;2023-05-16T13:51:41;13.10;99.90
9450;DHT22;4763;48.370;10.874;2023-05-16T13:54:10;13.00;99.90
9450;DHT22;4763;48.370;10.874;2023-05-16T13:56:36;12.90;99.90
9450;DHT22;4763;48.370;10.874;2023-05-16T13:59:03;12.70;99.90
9450;DHT22;4763;48.370;10.874;2023-05-16T14:01:30;12.70;99.90
9450;DHT22;4763;48.370;10.874;2023-05-16T14:03:56;12.60;99.90
9450;DHT22;4763;48.370;10.874;2023-05-16T14:06:23;12.50;99.90
9450;DHT22;4763;48.370;10.874;2023-05-16T14:08:50;12.50;99.90
9450;DHT22;4763;48.370;10.874;2023-05-16T14:11:18;12.50;99.90
9450;DHT22;4763;48.370;10.874;2023-05-16T14:13:47;12.60;99.90
9450;DHT22;4763;48.370;10.874;2023-05-16T14:16:14;12.40;99.90
9450;DHT22;4763;48.370;10.874;2023-05-16T14:18:41;12.10;99.90
9450;DHT22;4763;48.370;10.874;2023-05-16T14:21:08;12.10;99.90
9450;DHT22;4763;48.370;10.874;2023-05-16T14:23:35;12.00;99.90
9450;DHT22;4763;48.370;10.874;2023-05-16T14:26:02;12.00;99.90
9450;DHT22;4763;48.370;10.874;2023-05-16T14:28:30;11.90;99.90
9450;DHT22;4763;48.370;10.874;2023-05-16T14:30:59;11.90;99.90
9450;DHT22;4763;48.370;10.874;2023-05-16T14:33:29;11.80;99.90
9450;DHT22;4763;48.370;10.874;2023-05-16T14:35:57;11.80;99.90
9450;DHT22;4763;48.370;10.874;2023-05-16T14:38:24;11.80;99.90
9450;DHT22;4763;48.370;10.874;2023-05-16T14:40:50;11.70;99.90
9450;DHT22;4763;48.370;10.874;2023-05-16T14:43:17;11.70;99.90
9450;DHT22;4763;48.370;10.874;2023-05-16T14:45:45;11.70;99.90
9450;DHT22;4763;48.370;10.874;2023-05-16T14:48:12;11.70;99.90
9450;DHT22;4763;48.370;10.874;2023-05-16T14:50:38;11.70;99.90
9450;DHT22;4763;48.370;10.874;2023-05-16T14:53:05;11.60;99.90
9450;DHT22;4763;48.370;10.874;2023-05-16T14:55:32;11.60;99.90
9450;DHT22;4763;48.370;10.874;2023-05-16T14:57:59;11.50;99.90
9450;DHT22;4763;48.370;10.874;2023-05-16T15:00:26;11.50;99.90
9450;DHT22;4763;48.370;10.874;2023-05-16T15:02:54;11.50;99.90
9450;DHT22;4763;48.370;10.874;2023-05-16T15:05:20;11.50;99.90
9450;DHT22;4763;48.370;10.874;2023-05-16T15:07:49;11.60;99.90
9450;DHT22;4763;48.370;10.874;2023-05-16T15:10:16;11.50;99.90
9450;DHT22;4763;48.370;10.874;2023-05-16T15:12:43;11.50;99.90
9450;DHT22;4763;48.370;10.874;2023-05-16T15:15:10;11.50;99.90
9450;DHT22;4763;48.370;10.874;2023-05-16T15:17:40;11.60;99.90
9450;DHT22;4763;48.370;10.874;2023-05-16T15:20:10;11.70;99.90
9450;DHT22;4763;48.370;10.874;2023-05-16T15:22:38;11.70;99.90
9450;DHT22;4763;48.370;10.874;2023-05-16T15:25:06;11.70;99.90
9450;DHT22;4763;48.370;10.874;2023-05-16T15:27:33;11.70;99.90
9450;DHT22;4763;48.370;10.874;2023-05-16T15:30:00;11.70;99.90
9450;DHT22;4763;48.370;10.874;2023-05-16T15:32:28;11.80;99.90
9450;DHT22;4763;48.370;10.874;2023-05-16T15:34:54;11.70;99.90
9450;DHT22;4763;48.370;10.874;2023-05-16T15:37:24;11.70;99.90
9450;DHT22;4763;48.370;10.874;2023-05-16T15:39:51;11.70;99.90
9450;DHT22;4763;48.370;10.874;2023-05-16T15:42:18;11.70;99.90
9450;DHT22;4763;48.370;10.874;2023-05-16T15:44:48;11.70;99.90
9450;DHT22;4763;48.370;10.874;2023-05-16T15:47:15;11.70;99.90
9450;DHT22;4763;48.370;10.874;2023-05-16T15:49:42;11.80;99.90
9450;DHT22;4763;48.370;10.874;2023-05-16T15:52:11;11.70;99.90
9450;DHT22;4763;48.370;10.874;2023-05-16T15:54:39;11.60;99.90
9450;DHT22;4763;48.370;10.874;2023-05-16T15:57:06;11.70;99.90